Terminal Aerodrome Forecast
Issued by NWS

Home | Current Version | Previous Version | Text Only | Print | Product List | Glossary Off
Versions: 1 2 3 4 5 6 7 8 9 10 11 12 13 14 15 16 17

000
FTUS43 KTOP 200520
TAFFOE
TAF
KFOE 200520Z 2006/2106 10010KT 6SM SHRA VCTS OVC008CB
     FM200700 10009KT 6SM -SHRA OVC007
     FM200900 13008KT P6SM VCSH OVC007
     FM201400 27009KT P6SM BKN010=

USA.gov is the U.S. government's official web portal to all federal, state and local government web resources and services.